ウランバートル の空港の天気 - METARとTAF

チンギスハーン国際空港 ( ZMUB / ULN ) - モンゴル ウランバートル
飛行場実況気象(Metar)
観測時間08/11 15:30 ULAT (08/11 07:30 UTC)
風向・風速南 3m/s
視程10km以上
天気現象
少しの雲 雲底高度 910m
少しの雲 雲底高度 1010m
気温25℃
湿度26%
気圧1010hPa
METARZMUB 110730Z 18003MPS 9999 FEW030CB FEW033 25/04 Q1010 NOSIG RMK QFE650.9 27 MOP
過去の天気等 Google飛行場航空写真 Wunderground天気予報

過去48時間のMETAR

飛行場予報(TAF)
発表時間: 8/11 12:50 ULAT (8/11 04:50 UTC)
予報対象時間: 11日14時 ULAT ~ 12日20時 ULAT
風向・風速不定 2m/s
視程10km以上
少しの積乱雲 雲底高度 910m
全天の4割程度の雲 雲底高度 1010m
12日4時 ULAT ~ 12日20時 ULAT に一時的に
風向・風速不定 8m/s
天気現象しゅう雨
少しの雲 雲底高度 700m
全天の4割程度の積乱雲 雲底高度 820m
全天の8割程度の雲 雲底高度 910m
TAF ZMUB 110450Z 1106/1212 VRB02MPS 9999 FEW030CB SCT033 TX24/1107Z TN13/1121Z
TEMPO 1120/1212 VRB08MPS SHRA FEW023 SCT027CB BKN030